createdAt,value
2022-10-11T00:05:15.300Z,1.00
2022-10-11T00:15:21.265Z,1.00
2022-10-11T00:25:23.558Z,0.90
2022-10-11T00:35:26.552Z,1.00
2022-10-11T00:45:32.109Z,1.17
2022-10-11T00:55:40.854Z,1.10
2022-10-11T01:05:44.176Z,0.90
2022-10-11T01:15:56.998Z,1.00
2022-10-11T01:26:13.841Z,1.12
2022-10-11T01:36:28.107Z,1.05
2022-10-11T01:46:31.504Z,1.12
2022-10-11T01:57:06.383Z,1.20
2022-10-11T02:07:22.115Z,1.80
2022-10-11T02:17:31.462Z,1.45
2022-10-11T02:27:37.691Z,1.33
2022-10-11T02:37:51.923Z,1.20
2022-10-11T02:47:54.789Z,1.43
2022-10-11T02:57:57.361Z,1.60
2022-10-11T03:07:59.732Z,1.83
2022-10-11T03:18:02.105Z,1.75
2022-10-11T03:28:05.162Z,1.98
2022-10-11T03:38:12.265Z,1.87
2022-10-11T03:48:15.322Z,1.83
2022-10-11T03:58:17.654Z,1.90
2022-10-11T04:08:20.046Z,2.30
2022-10-11T04:18:22.497Z,2.50
2022-10-11T04:28:25.400Z,2.33
2022-10-11T04:38:27.875Z,2.20
2022-10-11T04:48:30.507Z,2.50
2022-10-11T04:58:35.426Z,2.20
2022-10-11T05:08:39.370Z,1.80
2022-10-11T05:18:41.994Z,1.80
2022-10-11T05:28:44.728Z,2.00
2022-10-11T05:38:47.966Z,1.50
2022-10-11T05:48:50.533Z,2.03
2022-10-11T05:58:53.966Z,2.40
2022-10-11T06:08:58.499Z,1.95
2022-10-11T06:19:01.323Z,2.53
2022-10-11T06:29:04.983Z,2.50
2022-10-11T06:39:08.066Z,2.50
2022-10-11T06:49:11.560Z,2.03
2022-10-11T06:59:15.344Z,2.30
2022-10-11T07:09:17.981Z,2.42
2022-10-11T07:19:20.982Z,2.72
2022-10-11T07:29:23.688Z,2.97
2022-10-11T07:39:27.503Z,3.00
2022-10-11T07:49:30.377Z,5.10
2022-10-11T07:59:34.073Z,3.97
2022-10-11T08:09:36.800Z,7.57
2022-10-11T08:19:39.523Z,7.05
2022-10-11T08:29:42.391Z,6.75
2022-10-11T08:39:45.315Z,8.02
2022-10-11T08:49:48.821Z,6.70
2022-10-11T09:00:07.131Z,6.83
2022-10-11T09:10:41.196Z,5.90
2022-10-11T09:21:05.531Z,5.20
2022-10-11T09:31:11.224Z,4.53
2022-10-11T09:41:43.929Z,7.72
2022-10-11T09:51:59.566Z,7.50
2022-10-11T10:02:14.928Z,6.10
2022-10-11T10:12:28.574Z,5.30
2022-10-11T10:22:38.855Z,7.30
2022-10-11T10:33:05.119Z,5.20
2022-10-11T10:43:16.269Z,7.00
2022-10-11T10:53:36.590Z,6.32
2022-10-11T11:03:59.901Z,7.32
2022-10-11T11:14:47.644Z,8.25
2022-10-11T11:35:34.083Z,7.70
2022-10-11T11:46:02.636Z,9.73
2022-10-11T11:56:14.599Z,11.38
2022-10-11T12:06:21.573Z,9.55
2022-10-11T12:16:29.298Z,12.27
2022-10-11T12:26:40.172Z,11.15
2022-10-11T12:36:48.683Z,13.02
2022-10-11T12:46:56.609Z,12.02
2022-10-11T12:57:26.940Z,12.70
2022-10-11T13:07:30.054Z,12.07
2022-10-11T13:17:38.699Z,13.53
2022-10-11T13:27:42.590Z,13.25
2022-10-11T13:37:48.112Z,11.53
2022-10-11T13:47:53.828Z,11.75
2022-10-11T13:58:01.765Z,12.15
2022-10-11T14:08:40.731Z,11.02
2022-10-11T14:18:46.289Z,10.27
2022-10-11T14:28:57.992Z,10.50
2022-10-11T14:39:01.879Z,10.15
2022-10-11T14:49:14.857Z,9.27
2022-10-11T14:59:21.603Z,9.23
2022-10-11T15:09:24.995Z,7.18
2022-10-11T15:19:28.233Z,8.43
2022-10-11T15:29:31.033Z,6.57
2022-10-11T15:39:34.314Z,7.37
2022-10-11T15:49:37.254Z,6.70
2022-10-11T15:59:39.930Z,6.47
2022-10-11T16:09:42.702Z,7.00
2022-10-11T16:19:45.511Z,7.63
2022-10-11T16:29:48.002Z,6.05
2022-10-11T16:39:50.636Z,5.25
2022-10-11T16:49:53.491Z,4.70
2022-10-11T16:59:56.351Z,5.68
2022-10-11T17:10:01.312Z,5.00
2022-10-11T17:20:04.529Z,5.30
2022-10-11T17:30:07.861Z,5.33
2022-10-11T17:40:10.802Z,4.87
2022-10-11T17:50:13.404Z,4.82
2022-10-11T18:00:16.586Z,4.85
2022-10-11T18:10:19.207Z,6.27
2022-10-11T18:20:21.955Z,5.35
2022-10-11T18:30:24.783Z,4.60
2022-10-11T18:40:27.333Z,4.00
2022-10-11T18:50:35.193Z,4.55
2022-10-11T19:00:41.608Z,5.05
2022-10-11T19:10:45.205Z,4.30
2022-10-11T19:20:48.622Z,4.13
2022-10-11T19:30:51.170Z,6.03
2022-10-11T19:40:54.393Z,5.32
2022-10-11T19:51:18.307Z,5.30
2022-10-11T20:01:23.177Z,6.07
2022-10-11T20:11:26.948Z,6.07
2022-10-11T20:21:30.968Z,4.90
2022-10-11T20:31:35.520Z,4.85
2022-10-11T20:41:40.390Z,5.05
2022-10-11T20:51:43.111Z,5.15
2022-10-11T21:01:45.656Z,5.40
2022-10-11T21:11:48.274Z,5.62
2022-10-11T21:21:53.702Z,6.37
2022-10-11T21:31:56.403Z,6.12
2022-10-11T21:41:58.674Z,6.00
2022-10-11T21:52:01.576Z,6.95
2022-10-11T22:02:03.970Z,6.75
2022-10-11T22:12:06.997Z,6.80
2022-10-11T22:22:09.371Z,7.05
2022-10-11T22:32:11.800Z,5.50
2022-10-11T22:42:14.818Z,7.30
2022-10-11T22:52:17.092Z,6.28
2022-10-11T23:02:19.409Z,5.90
2022-10-11T23:12:21.697Z,7.15
2022-10-11T23:22:24.538Z,7.97
2022-10-11T23:32:26.864Z,9.68
2022-10-11T23:42:29.210Z,8.65
2022-10-11T23:52:31.491Z,8.52
